Time;durP1;ratioP1;P1;durP2;ratioP2;P2;SDS_P1;SDS_P2;PMS_P1;PMS_P2;Temp;Humidity;BMP_temperature;BMP_pressure;BME280_temperature;BME280_humidity;BME280_pressure;Samples;Min_cycle;Max_cycle;Signal;HPM_P1;HPM_P2
2021/10/17 00:01:19;;;;;;;16.35;10.07;;;10.60;99.90;;;;;;5051903;28;20051;-77
2021/10/17 00:03:45;;;;;;;17.42;10.65;;;10.80;99.90;;;;;;5053197;28;20057;-77
2021/10/17 00:06:11;;;;;;;16.30;10.65;;;10.80;99.90;;;;;;5053105;28;20396;-77
2021/10/17 00:08:37;;;;;;;16.40;12.07;;;10.80;99.90;;;;;;5053149;28;20509;-77
2021/10/17 00:11:02;;;;;;;17.10;9.20;;;10.90;99.90;;;;;;5053404;28;20033;-77
2021/10/17 00:13:28;;;;;;;15.10;10.00;;;11.10;99.90;;;;;;5053046;28;20029;-77
2021/10/17 00:15:54;;;;;;;14.63;8.25;;;11.10;99.90;;;;;;5053028;28;20059;-77
2021/10/17 00:18:20;;;;;;;13.02;8.77;;;11.10;99.90;;;;;;5053037;28;20029;-77
2021/10/17 00:20:46;;;;;;;14.13;8.75;;;10.90;99.90;;;;;;5053039;28;20028;-77
2021/10/17 00:23:11;;;;;;;17.02;9.15;;;10.90;99.90;;;;;;5052973;28;20505;-77
2021/10/17 00:25:37;;;;;;;19.88;9.60;;;10.70;99.90;;;;;;5052987;28;20025;-77
2021/10/17 00:28:03;;;;;;;17.27;9.23;;;10.40;99.90;;;;;;5052922;28;20482;-77
2021/10/17 00:30:29;;;;;;;13.40;8.73;;;10.00;99.90;;;;;;5052881;28;20401;-78
2021/10/17 00:32:55;;;;;;;12.85;8.13;;;10.30;99.90;;;;;;5052561;28;20045;-77
2021/10/17 00:35:21;;;;;;;14.23;8.75;;;10.60;99.90;;;;;;5052874;28;20036;-77
2021/10/17 00:37:47;;;;;;;14.98;9.23;;;10.70;99.90;;;;;;5052777;28;20021;-77
2021/10/17 00:40:19;;;;;;;17.17;8.70;;;10.70;99.90;;;;;;5051569;28;20079;-77
2021/10/17 00:42:47;;;;;;;13.68;9.48;;;10.60;99.90;;;;;;5056902;28;20068;-77
2021/10/17 00:45:16;;;;;;;13.93;8.68;;;10.40;99.90;;;;;;5056717;28;20024;-78
2021/10/17 00:47:42;;;;;;;14.70;9.18;;;10.60;99.90;;;;;;5056561;28;20112;-77
2021/10/17 00:50:09;;;;;;;13.43;8.63;;;10.70;99.90;;;;;;5056798;28;20056;-77
2021/10/17 00:52:36;;;;;;;16.33;9.10;;;10.50;99.90;;;;;;5056556;28;20063;-78
2021/10/17 00:55:04;;;;;;;14.80;8.70;;;10.40;99.90;;;;;;5055247;28;20021;-78
2021/10/17 00:57:32;;;;;;;12.80;8.07;;;10.40;99.90;;;;;;5056562;28;20025;-78
2021/10/17 00:59:58;;;;;;;18.25;13.70;;;10.40;99.90;;;;;;5056438;28;20020;-77
2021/10/17 01:02:23;;;;;;;12.32;7.68;;;10.20;99.90;;;;;;5055101;28;20025;-77
2021/10/17 01:04:49;;;;;;;13.80;7.72;;;10.30;99.90;;;;;;5056473;28;20056;-77
2021/10/17 01:07:15;;;;;;;12.85;7.95;;;10.30;99.90;;;;;;5056299;28;20059;-78
2021/10/17 01:09:41;;;;;;;18.02;10.10;;;10.20;99.90;;;;;;5056248;28;20029;-78
2021/10/17 01:12:07;;;;;;;14.85;8.40;;;10.00;99.90;;;;;;5056634;28;20047;-78
2021/10/17 01:14:33;;;;;;;14.70;8.07;;;10.10;99.90;;;;;;5054864;28;20114;-77
2021/10/17 01:17:01;;;;;;;13.32;7.72;;;10.20;99.90;;;;;;5054856;28;20083;-77
2021/10/17 01:19:27;;;;;;;11.50;7.40;;;10.50;99.90;;;;;;5056109;28;20017;-79
2021/10/17 01:21:52;;;;;;;;;;;10.50;99.90;;;;;;5056450;28;20057;-77
2021/10/17 01:24:18;;;;;;;13.15;7.55;;;10.30;99.90;;;;;;5054732;28;19931;-77
2021/10/17 01:26:46;;;;;;;13.15;7.72;;;10.10;99.90;;;;;;5054681;28;20394;-77
2021/10/17 01:29:12;;;;;;;14.00;7.47;;;10.30;99.90;;;;;;5055788;28;20083;-78
2021/10/17 01:31:50;;;;;;;11.48;7.32;;;10.40;99.90;;;;;;5055440;28;20040;-78
2021/10/17 01:34:16;;;;;;;12.00;7.07;;;10.50;99.90;;;;;;5055926;28;20037;-77
2021/10/17 01:36:42;;;;;;;;;;;10.40;99.90;;;;;;5056195;28;20074;-77
2021/10/17 01:39:10;;;;;;;13.18;7.75;;;10.50;99.90;;;;;;5055722;28;20339;-77
2021/10/17 01:41:36;;;;;;;12.73;8.02;;;10.50;99.90;;;;;;5055648;28;20097;-77
2021/10/17 01:44:14;;;;;;;13.27;8.38;;;10.40;99.90;;;;;;5054380;28;20021;-78
2021/10/17 01:46:40;;;;;;;13.10;8.27;;;10.40;99.90;;;;;;5055870;28;20505;-78
2021/10/17 01:49:08;;;;;;;13.45;7.88;;;10.30;99.90;;;;;;5055500;28;20021;-78
2021/10/17 01:51:34;;;;;;;13.40;8.60;;;10.20;99.90;;;;;;5054099;28;20029;-77
2021/10/17 01:54:03;;;;;;;13.98;9.07;;;10.30;99.90;;;;;;5053052;28;20040;-77
2021/10/17 01:56:29;;;;;;;13.05;8.95;;;10.60;99.90;;;;;;5055378;28;20112;-77
2021/10/17 01:58:54;;;;;;;14.15;9.45;;;10.60;99.90;;;;;;5055290;28;20083;-77
2021/10/17 02:01:20;;;;;;;15.88;9.52;;;10.50;99.90;;;;;;5055264;28;20490;-77
2021/10/17 02:03:46;;;;;;;15.43;9.27;;;10.60;99.90;;;;;;5053940;28;20036;-77
2021/10/17 02:06:12;;;;;;;14.15;9.80;;;10.60;99.90;;;;;;5053937;28;20025;-78
2021/10/17 02:08:37;;;;;;;15.18;10.13;;;10.40;99.90;;;;;;5055267;28;20028;-77
2021/10/17 02:11:03;;;;;;;14.13;10.52;;;10.40;99.90;;;;;;5055096;28;20091;-77
2021/10/17 02:13:29;;;;;;;14.55;9.93;;;10.40;99.90;;;;;;5053726;28;20378;-78
2021/10/17 02:15:55;;;;;;;15.32;10.13;;;10.50;99.90;;;;;;5054981;28;20028;-77
2021/10/17 02:18:20;;;;;;;13.25;10.90;;;10.40;99.90;;;;;;5055070;28;20385;-77
2021/10/17 02:20:46;;;;;;;14.05;9.80;;;10.10;99.90;;;;;;5053654;28;20064;-77
2021/10/17 02:23:12;;;;;;;12.18;9.15;;;9.90;99.90;;;;;;5055293;28;20108;-77
2021/10/17 02:25:38;;;;;;;14.10;10.43;;;10.00;99.90;;;;;;5055124;28;20029;-77
2021/10/17 02:28:04;;;;;;;15.90;12.15;;;10.10;99.90;;;;;;5053515;28;20025;-77
2021/10/17 02:30:29;;;;;;;15.05;10.80;;;10.00;99.90;;;;;;5054843;28;20033;-77
2021/10/17 02:32:55;;;;;;;13.65;10.05;;;9.90;99.90;;;;;;5054324;28;20516;-77
2021/10/17 02:35:21;;;;;;;12.55;9.07;;;9.70;99.90;;;;;;5054822;28;20424;-77
2021/10/17 02:37:48;;;;;;;13.73;9.52;;;9.80;99.90;;;;;;5054664;28;20501;-77
2021/10/17 02:40:13;;;;;;;13.50;9.63;;;10.00;99.90;;;;;;5054675;28;20024;-77
2021/10/17 02:42:39;;;;;;;13.70;9.85;;;10.30;99.90;;;;;;5054531;28;20100;-77
2021/10/17 02:45:06;;;;;;;13.65;10.30;;;10.60;99.90;;;;;;5054892;28;20075;-77
2021/10/17 02:47:32;;;;;;;12.55;8.85;;;10.60;99.90;;;;;;5054341;28;20032;-77
2021/10/17 02:49:57;;;;;;;13.85;9.98;;;10.40;99.90;;;;;;5054376;28;20090;-77
2021/10/17 02:52:23;;;;;;;13.18;9.80;;;10.40;99.90;;;;;;5053022;28;20025;-77
2021/10/17 02:54:49;;;;;;;11.85;8.60;;;10.30;99.90;;;;;;5054146;28;20541;-77
2021/10/17 02:57:15;;;;;;;11.85;8.73;;;10.40;99.90;;;;;;5054441;28;20048;-78
2021/10/17 02:59:40;;;;;;;12.88;9.27;;;10.50;99.90;;;;;;5054454;28;20027;-78
2021/10/17 03:02:06;;;;;;;13.68;9.30;;;10.40;99.90;;;;;;5052904;28;20103;-77
2021/10/17 03:04:32;;;;;;;11.90;8.73;;;10.50;99.90;;;;;;5052589;28;20483;-77
2021/10/17 03:06:58;;;;;;;12.82;8.98;;;10.30;99.90;;;;;;5054022;28;20109;-77
2021/10/17 03:09:23;;;;;;;12.50;8.88;;;10.40;99.90;;;;;;5054018;28;20028;-77
2021/10/17 03:11:49;;;;;;;11.90;8.25;;;10.40;99.90;;;;;;5053960;28;20036;-78
2021/10/17 03:14:15;;;;;;;12.02;8.35;;;10.50;99.90;;;;;;5053899;28;20071;-77
2021/10/17 03:16:46;;;;;;;15.13;9.90;;;10.60;99.90;;;;;;5053826;28;20116;-77
2021/10/17 03:19:15;;;;;;;13.30;8.90;;;10.40;99.90;;;;;;5052224;28;20027;-77
2021/10/17 03:21:42;;;;;;;13.75;9.07;;;10.40;99.90;;;;;;5052449;28;20021;-77
2021/10/17 03:24:08;;;;;;;14.73;9.00;;;10.50;99.90;;;;;;5052430;28;20025;-77
2021/10/17 03:26:34;;;;;;;;;;;10.50;99.90;;;;;;5054209;28;20028;-77
2021/10/17 03:29:00;;;;;;;13.65;8.23;;;10.40;99.90;;;;;;5052350;28;20365;-77
2021/10/17 03:31:26;;;;;;;16.30;10.05;;;10.20;99.90;;;;;;5053832;28;20091;-78
2021/10/17 03:33:51;;;;;;;14.63;10.35;;;9.90;99.90;;;;;;5053788;28;20029;-77
2021/10/17 03:36:17;;;;;;;13.30;9.20;;;9.50;99.90;;;;;;5053632;28;20028;-77
2021/10/17 03:38:43;;;;;;;13.45;8.45;;;9.30;99.90;;;;;;5053432;28;20028;-77
2021/10/17 03:41:11;;;;;;;15.82;9.07;;;9.60;99.90;;;;;;5053476;28;20028;-77
2021/10/17 03:43:37;;;;;;;12.88;8.98;;;9.80;99.90;;;;;;5053764;28;20033;-77
2021/10/17 03:46:03;;;;;;;12.80;8.32;;;9.80;99.90;;;;;;5053625;28;20020;-77
2021/10/17 03:48:29;;;;;;;13.25;8.52;;;10.00;99.90;;;;;;5053330;28;20587;-77
2021/10/17 03:50:54;;;;;;;13.25;8.40;;;10.10;99.90;;;;;;5053343;28;20029;-77
2021/10/17 03:53:20;;;;;;;14.48;8.48;;;10.10;99.90;;;;;;5053221;28;20159;-77
2021/10/17 03:55:46;;;;;;;12.68;8.77;;;10.00;99.90;;;;;;5053353;28;20025;-77
2021/10/17 03:58:11;;;;;;;13.20;7.90;;;9.90;99.90;;;;;;5053283;28;20542;-77
2021/10/17 04:00:37;;;;;;;12.77;8.30;;;9.80;99.90;;;;;;5053212;28;20481;-77
2021/10/17 04:03:03;;;;;;;13.10;7.75;;;9.60;99.90;;;;;;5052170;28;20029;-77
2021/10/17 04:05:29;;;;;;;15.32;7.82;;;9.60;99.90;;;;;;5051985;28;20029;-77
2021/10/17 04:07:54;;;;;;;11.70;7.28;;;9.70;99.90;;;;;;5053167;28;20516;-77
2021/10/17 04:10:20;;;;;;;12.18;7.80;;;9.80;99.90;;;;;;5053129;28;20374;-77
2021/10/17 04:12:46;;;;;;;11.38;7.80;;;9.70;99.90;;;;;;5053120;28;20112;-77
2021/10/17 04:15:12;;;;;;;11.73;7.93;;;9.60;99.90;;;;;;5053034;28;20397;-77
2021/10/17 04:17:37;;;;;;;10.63;6.93;;;9.50;99.90;;;;;;5057006;28;20532;-77
2021/10/17 04:20:04;;;;;;;11.18;7.50;;;9.50;99.90;;;;;;5055970;28;20025;-77
2021/10/17 04:22:30;;;;;;;10.52;7.05;;;9.70;99.90;;;;;;5057330;28;20090;-77
2021/10/17 04:24:56;;;;;;;11.10;6.90;;;9.60;99.90;;;;;;5057110;28;20374;-77
2021/10/17 04:27:21;;;;;;;10.20;6.88;;;9.70;99.90;;;;;;5057338;28;20025;-77
2021/10/17 04:29:47;;;;;;;11.23;7.78;;;9.80;99.90;;;;;;5056998;28;20052;-77
2021/10/17 04:32:13;;;;;;;11.25;7.68;;;9.50;99.90;;;;;;5056946;28;20072;-77
2021/10/17 04:34:38;;;;;;;12.05;7.57;;;9.20;99.90;;;;;;5056856;28;20433;-77
2021/10/17 04:37:06;;;;;;;15.88;9.32;;;9.10;99.90;;;;;;5056899;28;20380;-77
2021/10/17 04:39:33;;;;;;;16.25;8.60;;;8.90;99.90;;;;;;5056705;28;20029;-77
2021/10/17 04:41:59;;;;;;;14.70;9.38;;;8.70;99.90;;;;;;5056778;28;20020;-77
2021/10/17 04:44:25;;;;;;;12.02;8.00;;;8.70;99.90;;;;;;5056944;28;20543;-78
2021/10/17 04:46:51;;;;;;;13.57;8.43;;;8.90;99.90;;;;;;5056689;28;20025;-77
2021/10/17 04:49:17;;;;;;;12.13;7.38;;;9.30;99.90;;;;;;5056776;28;20087;-77
2021/10/17 04:51:42;;;;;;;11.48;7.22;;;9.60;99.90;;;;;;5056694;28;20067;-77
2021/10/17 04:54:09;;;;;;;13.48;7.50;;;9.60;99.90;;;;;;5056755;28;20102;-77
2021/10/17 04:56:35;;;;;;;13.90;8.30;;;9.60;99.90;;;;;;5055247;28;20559;-77
2021/10/17 04:59:01;;;;;;;17.42;8.55;;;9.40;99.90;;;;;;5056479;28;20021;-77
2021/10/17 05:01:27;;;;;;;18.77;9.52;;;9.30;99.90;;;;;;5056431;28;20083;-77
2021/10/17 05:03:53;;;;;;;;;;;9.00;99.90;;;;;;5056857;28;20045;-77
2021/10/17 05:06:19;;;;;;;15.60;7.88;;;9.10;99.90;;;;;;5055094;28;19904;-77
2021/10/17 05:08:45;;;;;;;16.88;8.30;;;9.40;99.90;;;;;;5056292;28;20047;-77
2021/10/17 05:11:11;;;;;;;14.20;7.43;;;9.50;99.90;;;;;;5056309;28;20389;-77
2021/10/17 05:13:36;;;;;;;11.55;7.25;;;9.50;99.90;;;;;;5054851;28;20029;-77
2021/10/17 05:16:03;;;;;;;12.63;7.75;;;9.70;99.90;;;;;;5056583;28;20017;-77
2021/10/17 05:18:28;;;;;;;;;;;9.70;99.90;;;;;;5056486;28;20032;-77
2021/10/17 05:20:54;;;;;;;18.42;8.95;;;9.70;99.90;;;;;;5056020;28;19904;-77
2021/10/17 05:23:21;;;;;;;10.77;7.00;;;9.50;99.90;;;;;;5056057;28;20029;-77
2021/10/17 05:25:47;;;;;;;10.43;6.97;;;9.30;99.90;;;;;;5055993;28;20029;-77
2021/10/17 05:28:13;;;;;;;10.23;6.57;;;9.50;99.90;;;;;;5056252;28;20488;-77
2021/10/17 05:30:38;;;;;;;11.60;6.78;;;9.50;99.90;;;;;;5055850;28;20109;-77
2021/10/17 05:33:04;;;;;;;12.27;6.88;;;9.70;99.90;;;;;;5054407;28;20504;-77
2021/10/17 05:35:31;;;;;;;14.13;8.32;;;9.80;99.90;;;;;;5054685;28;20049;-77
2021/10/17 05:37:57;;;;;;;11.90;7.68;;;9.80;99.90;;;;;;5055722;28;20099;-77
2021/10/17 05:40:23;;;;;;;11.98;6.60;;;9.80;99.90;;;;;;5054396;28;20036;-77
2021/10/17 05:42:49;;;;;;;11.20;7.65;;;9.70;99.90;;;;;;5055689;28;20040;-77
2021/10/17 05:45:14;;;;;;;12.25;6.53;;;9.60;99.90;;;;;;5054278;28;20029;-77
2021/10/17 05:47:40;;;;;;;11.63;6.35;;;9.30;99.90;;;;;;5056049;28;20021;-77
2021/10/17 05:50:07;;;;;;;10.55;6.05;;;9.50;99.90;;;;;;5055520;28;20052;-77
2021/10/17 05:52:33;;;;;;;13.77;6.78;;;9.60;99.90;;;;;;5055477;28;20104;-77
2021/10/17 05:54:59;;;;;;;11.90;6.30;;;9.70;99.90;;;;;;5055484;28;20112;-77
2021/10/17 05:57:24;;;;;;;12.32;7.05;;;9.80;99.90;;;;;;5055358;28;20067;-77
2021/10/17 05:59:50;;;;;;;12.73;7.70;;;9.90;99.90;;;;;;5055315;28;20021;-77
2021/10/17 06:02:17;;;;;;;11.63;7.10;;;9.80;99.90;;;;;;5054023;28;20116;-77
2021/10/17 06:04:44;;;;;;;10.70;7.43;;;9.50;99.90;;;;;;5055222;28;20432;-77
2021/10/17 06:07:11;;;;;;;11.85;7.47;;;9.20;99.90;;;;;;5055158;28;20029;-77
2021/10/17 06:09:39;;;;;;;10.07;6.82;;;9.20;99.90;;;;;;5053882;28;20083;-77
2021/10/17 06:12:06;;;;;;;11.05;7.20;;;9.50;99.90;;;;;;5053843;28;20482;-78
2021/10/17 06:14:32;;;;;;;11.52;7.80;;;9.60;99.90;;;;;;5055238;28;20024;-77
2021/10/17 06:16:58;;;;;;;11.95;7.32;;;9.30;99.90;;;;;;5055065;28;20420;-78
2021/10/17 06:19:24;;;;;;;11.48;7.30;;;9.00;99.90;;;;;;5054947;28;20485;-77
2021/10/17 06:21:50;;;;;;;13.63;7.72;;;8.90;99.90;;;;;;5054915;28;20032;-77
2021/10/17 06:24:16;;;;;;;9.88;6.38;;;9.00;99.90;;;;;;5053594;28;20039;-77
2021/10/17 06:26:42;;;;;;;12.68;7.75;;;9.30;99.90;;;;;;5053567;28;20102;-77
2021/10/17 06:29:10;;;;;;;13.88;7.82;;;9.40;99.90;;;;;;5055145;28;20104;-77
2021/10/17 06:31:37;;;;;;;11.43;6.88;;;9.40;99.90;;;;;;5054552;28;20102;-77
2021/10/17 06:34:03;;;;;;;11.07;6.80;;;9.60;99.90;;;;;;5053351;28;20037;-77
2021/10/17 06:36:29;;;;;;;13.38;7.47;;;9.50;99.90;;;;;;5054816;28;20031;-77
2021/10/17 06:38:54;;;;;;;16.05;10.20;;;9.50;99.90;;;;;;5054007;28;20021;-77
2021/10/17 06:41:20;;;;;;;13.38;9.30;;;9.50;99.90;;;;;;5053295;28;20021;-78
2021/10/17 06:43:46;;;;;;;12.30;7.72;;;9.50;99.90;;;;;;5053288;28;20139;-77
2021/10/17 06:46:12;;;;;;;15.13;8.07;;;9.50;99.90;;;;;;5053190;28;20064;-77
2021/10/17 06:48:37;;;;;;;40.47;11.10;;;9.60;99.90;;;;;;5053139;28;20398;-77
2021/10/17 06:51:03;;;;;;;13.63;8.32;;;9.50;99.90;;;;;;5053131;28;20066;-77
2021/10/17 06:53:29;;;;;;;20.88;9.60;;;9.40;99.90;;;;;;5052985;28;20162;-77
2021/10/17 06:55:55;;;;;;;13.93;9.07;;;9.40;99.90;;;;;;5052977;28;20025;-77
2021/10/17 06:58:20;;;;;;;13.63;7.80;;;9.60;99.90;;;;;;5054192;28;20028;-77
2021/10/17 07:00:46;;;;;;;15.30;9.20;;;9.70;99.90;;;;;;5054199;28;20025;-78
2021/10/17 07:03:12;;;;;;;12.15;8.50;;;9.70;99.90;;;;;;5054452;28;20017;-77
2021/10/17 07:05:37;;;;;;;14.10;8.50;;;9.90;99.90;;;;;;5054176;28;20033;-77
2021/10/17 07:08:04;;;;;;;14.52;8.40;;;10.00;99.90;;;;;;5054033;28;20557;-77
2021/10/17 07:10:29;;;;;;;13.32;8.52;;;10.10;99.90;;;;;;5053878;28;20032;-77
2021/10/17 07:12:55;;;;;;;14.32;9.50;;;10.20;99.90;;;;;;5054316;28;20029;-77
2021/10/17 07:15:21;;;;;;;12.75;7.78;;;10.10;99.90;;;;;;5053868;28;20055;-77
2021/10/17 07:17:46;;;;;;;14.18;9.05;;;10.20;99.90;;;;;;5054132;28;20028;-77
2021/10/17 07:20:12;;;;;;;17.85;8.85;;;10.40;99.90;;;;;;5053781;28;20027;-77
2021/10/17 07:22:38;;;;;;;13.55;7.70;;;10.40;99.90;;;;;;5054011;28;20017;-77
2021/10/17 07:25:04;;;;;;;14.45;8.13;;;10.50;99.90;;;;;;5054107;28;20375;-77
2021/10/17 07:27:30;;;;;;;15.13;9.50;;;10.50;99.90;;;;;;5053979;28;20029;-77
2021/10/17 07:29:56;;;;;;;14.30;7.95;;;10.20;99.90;;;;;;5052340;28;20036;-77
2021/10/17 07:32:21;;;;;;;17.85;8.27;;;10.30;99.90;;;;;;5053366;28;20033;-77
2021/10/17 07:34:47;;;;;;;12.57;8.35;;;10.40;99.90;;;;;;5053456;28;20041;-77
2021/10/17 07:37:13;;;;;;;14.57;8.48;;;10.70;99.90;;;;;;5053717;28;20098;-77
2021/10/17 07:39:38;;;;;;;12.18;7.65;;;10.80;99.90;;;;;;5052177;28;20032;-77
2021/10/17 07:42:04;;;;;;;14.75;8.02;;;11.20;99.90;;;;;;5053435;28;20022;-77
2021/10/17 07:44:30;;;;;;;13.82;8.27;;;11.50;99.90;;;;;;5052163;28;20405;-77
2021/10/17 07:46:57;;;;;;;15.82;10.15;;;11.40;99.90;;;;;;5053305;28;20033;-77
2021/10/17 07:49:23;;;;;;;12.68;7.38;;;11.20;99.90;;;;;;5053419;28;20029;-78
2021/10/17 07:51:49;;;;;;;11.70;7.28;;;11.20;99.90;;;;;;5052467;28;20075;-78
2021/10/17 07:54:14;;;;;;;12.23;7.50;;;11.20;99.90;;;;;;5051921;28;20087;-77
2021/10/17 07:56:40;;;;;;;11.88;7.57;;;11.30;99.90;;;;;;5052024;28;20477;-77
2021/10/17 07:59:06;;;;;;;12.45;6.85;;;11.50;99.90;;;;;;5053317;28;20032;-78
2021/10/17 08:01:32;;;;;;;13.00;7.43;;;11.70;99.90;;;;;;5053239;28;20096;-78
2021/10/17 08:03:57;;;;;;;13.07;8.00;;;12.20;99.90;;;;;;5053451;28;20040;-77
2021/10/17 08:06:23;;;;;;;11.55;7.00;;;12.00;99.90;;;;;;5052827;28;20029;-78
2021/10/17 08:08:49;;;;;;;10.32;6.82;;;11.90;99.90;;;;;;5053188;28;20162;-78
2021/10/17 08:11:16;;;;;;;12.73;8.30;;;11.90;99.90;;;;;;5053111;28;20485;-77
2021/10/17 08:13:42;;;;;;;10.73;7.13;;;12.10;99.90;;;;;;5051707;28;20489;-78
2021/10/17 08:16:09;;;;;;;10.70;6.65;;;12.10;99.90;;;;;;5053059;28;20070;-77
2021/10/17 08:18:35;;;;;;;11.38;6.40;;;12.60;99.90;;;;;;5053419;28;20021;-77
2021/10/17 08:21:01;;;;;;;;;;;12.80;99.90;;;;;;5053481;28;20092;-78
2021/10/17 08:23:26;;;;;;;11.82;7.07;;;13.00;99.90;;;;;;5053197;28;19944;-78
2021/10/17 08:25:52;;;;;;;;;;;13.20;99.90;;;;;;5052104;28;20029;-78
2021/10/17 08:28:18;;;;;;;10.10;6.15;;;13.40;99.90;;;;;;5052971;28;19904;-78
2021/10/17 08:30:46;;;;;;;;;;;13.60;99.90;;;;;;5053226;28;20380;-78
2021/10/17 08:33:12;;;;;;;13.40;5.50;;;14.10;99.90;;;;;;5053194;28;19947;-78
2021/10/17 08:35:38;;;;;;;10.55;6.15;;;15.20;99.90;;;;;;5052994;28;20068;-78
2021/10/17 08:38:04;;;;;;;11.60;6.28;;;16.40;99.90;;;;;;5052788;28;20017;-79
2021/10/17 08:40:29;;;;;;;8.75;5.28;;;17.50;98.70;;;;;;5052824;28;20025;-79
2021/10/17 08:42:56;;;;;;;10.35;5.93;;;18.90;95.30;;;;;;5052825;28;20563;-78
2021/10/17 08:45:22;;;;;;;8.93;5.20;;;18.60;93.00;;;;;;5052776;28;20029;-79
2021/10/17 08:47:49;;;;;;;11.07;5.72;;;19.30;92.40;;;;;;5052794;28;20021;-78
2021/10/17 08:50:16;;;;;;;13.15;6.68;;;19.00;91.00;;;;;;5053106;28;20097;-79
2021/10/17 08:52:44;;;;;;;10.25;5.47;;;19.00;90.40;;;;;;5051452;28;20116;-78
2021/10/17 08:55:12;;;;;;;10.90;5.43;;;18.60;92.00;;;;;;5051343;28;20029;-78
2021/10/17 08:57:41;;;;;;;10.55;5.50;;;19.10;91.20;;;;;;5052611;28;20018;-78
2021/10/17 09:00:25;;;;;;;9.35;5.40;;;19.10;90.90;;;;;;5052897;28;20032;-78
2021/10/17 09:02:51;;;;;;;9.75;5.63;;;18.80;89.90;;;;;;5053718;28;20074;-78
2021/10/17 09:05:18;;;;;;;11.20;5.47;;;18.20;91.60;;;;;;5056624;28;20119;-78
2021/10/17 09:07:53;;;;;;;9.38;5.13;;;17.60;92.80;;;;;;5055084;28;20094;-78
2021/10/17 09:10:18;;;;;;;11.30;5.70;;;17.40;93.30;;;;;;5054790;28;20035;-78
2021/10/17 09:12:47;;;;;;;10.15;5.70;;;16.50;95.60;;;;;;5056520;28;20029;-78
2021/10/17 09:15:26;;;;;;;11.20;6.05;;;17.60;94.20;;;;;;5054828;28;20551;-78
2021/10/17 09:18:20;;;;;;;9.63;5.65;;;17.80;93.60;;;;;;5056178;28;20027;-78
2021/10/17 09:20:46;;;;;;;;;;;18.40;93.00;;;;;;5055248;28;20028;-78
2021/10/17 09:23:33;;;;;;;11.00;6.03;;;18.30;92.00;;;;;;5056163;28;19904;-78
2021/10/17 09:26:05;;;;;;;13.25;6.35;;;17.00;94.30;;;;;;5051954;28;20040;-77
2021/10/17 09:28:31;;;;;;;21.42;11.27;;;16.10;96.20;;;;;;5055958;28;20021;-78
2021/10/17 09:31:00;;;;;;;13.93;9.80;;;16.10;97.40;;;;;;5054388;28;20389;-78
2021/10/17 09:33:26;;;;;;;11.88;7.15;;;16.10;97.70;;;;;;5054214;28;20079;-78
2021/10/17 09:35:53;;;;;;;11.60;7.65;;;15.90;98.20;;;;;;5055764;28;20021;-78
2021/10/17 09:38:23;;;;;;;17.30;6.60;;;15.50;99.70;;;;;;5055700;28;20112;-78
2021/10/17 09:40:49;;;;;;;13.18;6.30;;;15.70;98.80;;;;;;5055823;28;20489;-78
2021/10/17 09:43:33;;;;;;;9.90;6.10;;;15.60;99.90;;;;;;5055777;28;20025;-78
2021/10/17 09:46:14;;;;;;;11.98;8.07;;;15.70;99.70;;;;;;5056091;28;20029;-78
2021/10/17 09:48:42;;;;;;;15.23;6.25;;;14.80;99.90;;;;;;5055687;28;20059;-77
2021/10/17 09:51:13;;;;;;;11.10;6.07;;;14.60;99.90;;;;;;5054233;28;20033;-78
2021/10/17 09:53:54;;;;;;;11.55;6.60;;;14.70;99.90;;;;;;5055432;28;20096;-78
2021/10/17 09:56:33;;;;;;;36.90;22.58;;;15.10;99.90;;;;;;5055682;28;20106;-77
2021/10/17 09:59:17;;;;;;;29.50;20.08;;;15.30;99.90;;;;;;5055644;28;20102;-77
2021/10/17 10:01:43;;;;;;;20.60;13.93;;;15.70;99.90;;;;;;5055461;28;20428;-78
2021/10/17 10:04:11;;;;;;;;;;;16.20;99.90;;;;;;5055722;28;20040;-78
2021/10/17 10:06:37;;;;;;;105.65;59.75;;;16.10;99.50;;;;;;5053965;28;19905;-78
2021/10/17 10:09:04;;;;;;;23.17;13.80;;;16.20;99.60;;;;;;5053936;28;20032;-78
2021/10/17 10:11:32;;;;;;;14.18;8.23;;;16.90;99.10;;;;;;5053846;28;20561;-79
2021/10/17 10:14:06;;;;;;;8.60;5.05;;;20.30;94.80;;;;;;5054025;28;20069;-79
2021/10/17 10:16:33;;;;;;;21.30;14.90;;;24.70;79.00;;;;;;5055039;28;20477;-80
2021/10/17 10:19:02;;;;;;;16.27;11.85;;;26.00;69.90;;;;;;5055086;28;20606;-80
2021/10/17 10:21:28;;;;;;;24.98;19.33;;;26.10;67.10;;;;;;5054933;28;20029;-79
2021/10/17 10:23:58;;;;;;;14.57;8.45;;;25.40;64.10;;;;;;5053603;28;20025;-79
2021/10/17 10:26:26;;;;;;;11.00;6.63;;;24.00;66.70;;;;;;5053873;28;20025;-79
2021/10/17 10:28:54;;;;;;;13.80;8.90;;;23.10;67.60;;;;;;5053375;28;20025;-79
2021/10/17 10:31:44;;;;;;;10.43;6.30;;;22.90;68.80;;;;;;5054544;28;20076;-80
2021/10/17 10:34:13;;;;;;;11.35;5.70;;;22.90;71.60;;;;;;5053353;28;20386;-78
2021/10/17 10:36:42;;;;;;;9.98;5.68;;;21.80;73.30;;;;;;5054627;28;20052;-79
2021/10/17 10:39:10;;;;;;;11.98;6.13;;;21.80;72.70;;;;;;5053225;28;20505;-79
2021/10/17 10:41:51;;;;;;;9.77;5.47;;;22.50;71.80;;;;;;5054521;28;20603;-79
2021/10/17 10:44:26;;;;;;;9.18;5.47;;;23.10;70.60;;;;;;5054718;28;20086;-79
2021/10/17 10:46:56;;;;;;;10.38;5.43;;;23.40;69.80;;;;;;5054597;28;20033;-79
2021/10/17 10:49:45;;;;;;;9.25;5.40;;;23.80;68.50;;;;;;5054434;28;20025;-79
2021/10/17 10:52:34;;;;;;;10.77;5.47;;;23.60;68.70;;;;;;5054820;28;20025;-79
2021/10/17 10:55:06;;;;;;;10.90;5.63;;;22.50;71.40;;;;;;5052976;28;20087;-78
2021/10/17 10:57:42;;;;;;;9.02;5.43;;;22.10;71.20;;;;;;5054333;28;20108;-79
2021/10/17 11:00:12;;;;;;;11.30;5.47;;;22.20;74.40;;;;;;5054434;28;20028;-79
2021/10/17 11:02:39;;;;;;;10.18;5.55;;;23.20;71.40;;;;;;5054069;28;20025;-78
2021/10/17 11:05:16;;;;;;;11.27;5.72;;;25.20;68.20;;;;;;5054139;28;20021;-79
2021/10/17 11:07:48;;;;;;;9.40;5.57;;;26.90;64.10;;;;;;5052727;28;20025;-80
2021/10/17 11:10:23;;;;;;;10.73;5.40;;;26.80;62.50;;;;;;5052530;28;20126;-79
2021/10/17 11:12:51;;;;;;;10.32;5.32;;;26.80;62.70;;;;;;5052785;28;20025;-79
2021/10/17 11:15:19;;;;;;;8.50;5.32;;;26.50;61.40;;;;;;5054136;28;20032;-79
2021/10/17 11:17:49;;;;;;;9.73;5.43;;;27.60;61.00;;;;;;5052597;28;20021;-79
2021/10/17 11:20:21;;;;;;;10.32;5.20;;;26.20;60.50;;;;;;5052590;28;20040;-79
2021/10/17 11:22:48;;;;;;;12.07;5.60;;;28.00;60.50;;;;;;5052515;28;20494;-79
2021/10/17 11:25:16;;;;;;;9.10;5.43;;;30.30;55.60;;;;;;5053593;28;20040;-79
2021/10/17 11:27:43;;;;;;;10.60;5.47;;;29.70;54.20;;;;;;5052378;28;20397;-79
2021/10/17 11:30:29;;;;;;;10.98;5.80;;;29.70;54.70;;;;;;5052392;28;20029;-80
2021/10/17 11:32:57;;;;;;;16.77;5.47;;;31.70;51.90;;;;;;5051935;28;20128;-80
2021/10/17 11:35:32;;;;;;;9.95;5.57;;;32.60;50.80;;;;;;5052230;28;20033;-80
2021/10/17 11:37:59;;;;;;;11.02;5.55;;;32.10;49.90;;;;;;5053648;28;20469;-80
2021/10/17 11:40:26;;;;;;;10.18;5.28;;;33.20;48.50;;;;;;5053515;28;20104;-80
2021/10/17 11:42:57;;;;;;;10.32;5.20;;;33.80;47.30;;;;;;5053499;28;20099;-79
2021/10/17 11:45:32;;;;;;;8.80;5.72;;;34.30;46.60;;;;;;5053670;28;20032;-80
2021/10/17 11:48:00;;;;;;;9.95;5.40;;;34.50;44.90;;;;;;5052143;28;20036;-80
2021/10/17 11:50:41;;;;;;;10.77;5.28;;;35.10;44.10;;;;;;5053474;28;20033;-80
2021/10/17 11:53:10;;;;;;;7.85;5.18;;;35.10;45.60;;;;;;5053636;28;20060;-79
2021/10/17 11:55:41;;;;;;;10.18;5.40;;;35.20;45.80;;;;;;5053225;28;20021;-80
2021/10/17 11:58:21;;;;;;;10.18;5.40;;;36.00;44.10;;;;;;5053447;28;20027;-80
2021/10/17 12:00:49;;;;;;;8.00;5.30;;;36.50;42.90;;;;;;5051950;28;20029;-80
2021/10/17 12:03:19;;;;;;;9.63;5.63;;;36.30;43.80;;;;;;5053232;28;20047;-80
2021/10/17 12:05:46;;;;;;;10.52;5.25;;;35.50;43.90;;;;;;5053372;28;20032;-80
2021/10/17 12:08:26;;;;;;;9.75;5.43;;;35.40;44.50;;;;;;5053208;28;20362;-80
2021/10/17 12:11:07;;;;;;;11.50;5.60;;;37.20;42.90;;;;;;5053233;28;20052;-80
2021/10/17 12:13:43;;;;;;;8.52;5.20;;;39.00;41.70;;;;;;5051506;28;20017;-80
2021/10/17 12:16:14;;;;;;;9.13;5.15;;;36.30;42.40;;;;;;5053317;28;20029;-80
2021/10/17 12:18:48;;;;;;;8.57;5.38;;;37.10;42.20;;;;;;5051774;28;20120;-80
2021/10/17 12:21:18;;;;;;;8.10;5.70;;;38.30;41.20;;;;;;5053139;28;20025;-81
2021/10/17 12:23:45;;;;;;;8.82;5.75;;;41.20;39.20;;;;;;5051762;28;20021;-80
2021/10/17 12:26:16;;;;;;;10.57;6.40;;;39.30;39.40;;;;;;5053005;28;20027;-81
2021/10/17 12:28:42;;;;;;;9.48;5.80;;;41.70;37.80;;;;;;5051705;28;20040;-80
2021/10/17 12:31:08;;;;;;;9.38;5.53;;;40.00;38.40;;;;;;5052741;28;20409;-80
2021/10/17 12:33:40;;;;;;;8.55;4.13;;;40.10;38.40;;;;;;5052855;28;20025;-80
2021/10/17 12:36:21;;;;;;;8.00;4.40;;;35.30;42.60;;;;;;5053095;28;20013;-80
2021/10/17 12:38:56;;;;;;;10.63;4.93;;;31.40;46.10;;;;;;5056914;28;20033;-79
2021/10/17 12:41:28;;;;;;;8.70;5.15;;;30.10;48.80;;;;;;5056881;28;20092;-80
2021/10/17 12:44:03;;;;;;;9.07;5.38;;;31.80;47.10;;;;;;5056788;28;20105;-80
2021/10/17 12:46:30;;;;;;;8.98;5.90;;;35.90;44.10;;;;;;5056903;28;20056;-81